createdAt,value
2022-08-05T00:00:55.851Z,24.06
2022-08-05T00:03:43.209Z,24.17
2022-08-05T00:06:27.786Z,24.00
2022-08-05T00:09:03.532Z,24.04
2022-08-05T00:11:35.174Z,23.90
2022-08-05T00:14:17.178Z,23.94
2022-08-05T00:16:52.100Z,24.03
2022-08-05T00:19:22.605Z,24.04
2022-08-05T00:21:50.327Z,23.80
2022-08-05T00:24:24.308Z,23.81
2022-08-05T00:26:52.919Z,23.86
2022-08-05T00:29:22.550Z,23.87
2022-08-05T00:32:13.013Z,23.77
2022-08-05T00:34:53.546Z,23.87
2022-08-05T00:37:35.292Z,23.87
2022-08-05T00:40:17.957Z,23.89
2022-08-05T00:42:55.301Z,23.90
2022-08-05T00:45:28.150Z,23.89
2022-08-05T00:48:13.809Z,23.89
2022-08-05T00:50:41.986Z,23.83
2022-08-05T00:53:59.895Z,23.81
2022-08-05T00:55:58.967Z,23.73
2022-08-05T00:58:27.177Z,23.60
2022-08-05T01:00:54.777Z,23.51
2022-08-05T01:03:22.699Z,23.57
2022-08-05T01:05:54.805Z,23.52
2022-08-05T01:08:40.187Z,23.52
2022-08-05T01:11:13.670Z,23.40
2022-08-05T01:13:59.856Z,23.43
2022-08-05T01:16:35.910Z,23.33
2022-08-05T01:19:06.627Z,23.39
2022-08-05T01:21:42.125Z,23.34
2022-08-05T01:24:20.863Z,23.32
2022-08-05T01:27:24.320Z,23.40
2022-08-05T01:29:53.054Z,23.39
2022-08-05T01:32:22.854Z,23.37
2022-08-05T01:34:51.348Z,23.52
2022-08-05T01:37:25.079Z,23.40
2022-08-05T01:39:54.929Z,23.23
2022-08-05T01:42:26.900Z,23.26
2022-08-05T01:44:55.761Z,23.20
2022-08-05T01:47:23.226Z,23.17
2022-08-05T01:50:01.683Z,23.15
2022-08-05T01:52:30.279Z,23.16
2022-08-05T01:54:58.209Z,23.14
2022-08-05T01:58:11.070Z,23.12
2022-08-05T02:00:29.933Z,23.09
2022-08-05T02:03:00.258Z,22.92
2022-08-05T02:05:34.382Z,22.93
2022-08-05T02:08:03.466Z,23.03
2022-08-05T02:10:40.656Z,23.04
2022-08-05T02:13:22.362Z,22.89
2022-08-05T02:16:01.764Z,22.76
2022-08-05T02:18:37.539Z,22.77
2022-08-05T02:21:16.378Z,22.93
2022-08-05T02:23:46.024Z,22.94
2022-08-05T02:26:13.466Z,22.93
2022-08-05T02:28:41.869Z,22.89
2022-08-05T02:31:22.450Z,23.05
2022-08-05T02:33:57.346Z,22.86
2022-08-05T02:36:27.461Z,22.76
2022-08-05T02:38:55.358Z,22.75
2022-08-05T02:41:28.892Z,22.75
2022-08-05T02:44:13.327Z,22.82
2022-08-05T02:46:44.028Z,22.67
2022-08-05T02:49:22.330Z,22.48
2022-08-05T02:52:03.966Z,22.33
2022-08-05T02:54:35.047Z,22.19
2022-08-05T02:57:05.199Z,22.04
2022-08-05T02:59:50.463Z,21.73
2022-08-05T03:02:20.043Z,21.69
2022-08-05T03:04:47.901Z,21.62
2022-08-05T03:07:40.677Z,21.52
2022-08-05T03:10:08.440Z,21.53
2022-08-05T03:12:37.543Z,21.60
2022-08-05T03:15:09.157Z,21.61
2022-08-05T03:17:40.703Z,21.58
2022-08-05T03:20:10.208Z,21.60
2022-08-05T03:22:37.724Z,21.63
2022-08-05T03:25:31.520Z,21.63
2022-08-05T03:27:59.898Z,21.61
2022-08-05T03:30:33.452Z,21.57
2022-08-05T03:33:02.151Z,21.56
2022-08-05T03:35:29.451Z,21.61
2022-08-05T03:38:01.291Z,21.54
2022-08-05T03:40:31.246Z,21.55
2022-08-05T03:43:15.683Z,21.57
2022-08-05T03:45:57.513Z,21.64
2022-08-05T03:48:29.451Z,21.92
2022-08-05T03:52:38.697Z,22.32
2022-08-05T03:55:52.988Z,22.60
2022-08-05T03:56:38.727Z,23.09
2022-08-05T03:59:15.231Z,23.66
2022-08-05T04:01:48.517Z,24.34
2022-08-05T04:04:16.860Z,24.88
2022-08-05T04:06:51.400Z,24.59
2022-08-05T04:09:25.881Z,24.24
2022-08-05T04:11:56.413Z,23.94
2022-08-05T04:14:30.116Z,23.60
2022-08-05T04:16:59.154Z,23.45
2022-08-05T04:19:27.652Z,23.35
2022-08-05T04:22:09.044Z,23.29
2022-08-05T04:24:44.204Z,23.10
2022-08-05T04:27:12.734Z,23.22
2022-08-05T04:29:40.215Z,23.10
2022-08-05T04:32:07.922Z,23.04
2022-08-05T04:34:37.510Z,23.02
2022-08-05T04:37:10.563Z,23.00
2022-08-05T04:39:38.014Z,23.00
2022-08-05T04:42:06.477Z,23.10
2022-08-05T04:44:33.878Z,23.14
2022-08-05T04:47:09.131Z,23.18
2022-08-05T04:50:01.588Z,23.23
2022-08-05T04:52:28.151Z,23.35
2022-08-05T04:54:56.880Z,23.47
2022-08-05T04:57:28.830Z,23.38
2022-08-05T04:59:58.527Z,23.48
2022-08-05T05:02:36.283Z,23.65
2022-08-05T05:05:16.638Z,23.73
2022-08-05T05:07:56.191Z,23.62
2022-08-05T05:10:24.062Z,23.85
2022-08-05T05:12:51.190Z,23.57
2022-08-05T05:15:56.762Z,23.90
2022-08-05T05:18:05.804Z,24.15
2022-08-05T05:20:33.117Z,24.19
2022-08-05T05:23:04.178Z,24.24
2022-08-05T05:25:41.070Z,24.38
2022-08-05T05:28:11.752Z,24.23
2022-08-05T05:30:39.307Z,24.47
2022-08-05T05:33:15.946Z,24.51
2022-08-05T05:35:47.741Z,24.63
2022-08-05T05:38:22.521Z,26.84
2022-08-05T05:40:55.729Z,30.00
2022-08-05T05:43:54.314Z,32.31
2022-08-05T05:46:17.344Z,34.04
2022-08-05T05:48:47.788Z,32.85
2022-08-05T05:51:19.364Z,33.86
2022-08-05T05:53:57.758Z,34.43
2022-08-05T05:56:32.634Z,35.02
2022-08-05T05:59:05.581Z,34.57
2022-08-05T06:01:39.518Z,37.55
2022-08-05T06:04:08.074Z,38.84
2022-08-05T06:06:35.601Z,38.84
2022-08-05T06:09:04.108Z,38.83
2022-08-05T06:11:32.069Z,38.29
2022-08-05T06:14:00.458Z,36.66
2022-08-05T06:16:32.715Z,37.54
2022-08-05T06:19:05.976Z,38.93
2022-08-05T06:21:37.658Z,40.19
2022-08-05T06:24:07.749Z,39.73
2022-08-05T06:26:45.891Z,35.36
2022-08-05T06:29:25.083Z,36.06
2022-08-05T06:32:21.281Z,39.49
2022-08-05T06:34:56.798Z,39.34
2022-08-05T06:37:55.622Z,35.89
2022-08-05T06:40:12.264Z,36.18
2022-08-05T06:42:40.790Z,37.19
2022-08-05T06:45:08.488Z,40.14
2022-08-05T06:48:36.023Z,40.76
2022-08-05T06:50:23.789Z,41.14
2022-08-05T06:52:58.551Z,40.92
2022-08-05T06:55:36.176Z,40.14
2022-08-05T06:58:29.682Z,41.51
2022-08-05T07:00:51.330Z,42.56
2022-08-05T07:03:18.731Z,37.36
2022-08-05T07:05:46.399Z,38.35
2022-08-05T07:08:13.700Z,41.30
2022-08-05T07:10:52.595Z,41.10
2022-08-05T07:13:58.141Z,41.88
2022-08-05T07:17:59.179Z,41.61
2022-08-05T07:22:28.154Z,41.97
2022-08-05T07:24:57.782Z,42.83
2022-08-05T07:27:27.718Z,40.82
2022-08-05T07:30:27.321Z,41.69
2022-08-05T07:32:57.932Z,42.52
2022-08-05T07:36:01.434Z,42.22
2022-08-05T07:38:33.599Z,42.64
2022-08-05T07:41:16.715Z,41.73
2022-08-05T07:43:46.905Z,40.91
2022-08-05T07:46:18.890Z,36.71
2022-08-05T07:49:02.440Z,37.25
2022-08-05T07:51:37.399Z,39.45
2022-08-05T07:54:09.830Z,40.14
2022-08-05T07:57:00.032Z,41.24
2022-08-05T07:59:38.825Z,41.51
2022-08-05T08:02:16.783Z,42.14
2022-08-05T08:04:45.767Z,42.11
2022-08-05T08:07:13.443Z,42.14
2022-08-05T08:09:40.588Z,40.99
2022-08-05T08:12:35.611Z,40.50
2022-08-05T08:14:55.082Z,40.61
2022-08-05T08:17:22.782Z,40.25
2022-08-05T08:20:10.848Z,39.17
2022-08-05T08:22:38.061Z,40.84
2022-08-05T08:25:16.170Z,39.27
2022-08-05T08:27:47.973Z,39.21
2022-08-05T08:30:32.630Z,39.93
2022-08-05T08:33:09.128Z,38.41
2022-08-05T08:35:52.286Z,38.37
2022-08-05T08:38:36.145Z,39.71
2022-08-05T08:41:07.363Z,40.17
2022-08-05T08:45:19.288Z,40.80
2022-08-05T08:46:22.924Z,40.98
2022-08-05T08:49:04.160Z,40.86
2022-08-05T08:52:03.248Z,40.34
2022-08-05T08:54:27.520Z,39.46
2022-08-05T08:56:56.606Z,38.08
2022-08-05T08:59:27.700Z,38.42
2022-08-05T09:02:02.209Z,38.35
2022-08-05T09:04:30.376Z,38.70
2022-08-05T09:06:58.528Z,38.77
2022-08-05T09:09:32.542Z,38.08
2022-08-05T09:12:15.288Z,37.98
2022-08-05T09:14:58.931Z,38.05
2022-08-05T09:17:40.399Z,37.56
2022-08-05T09:20:09.607Z,37.83
2022-08-05T09:23:05.214Z,37.93
2022-08-05T09:26:01.373Z,36.29
2022-08-05T09:28:24.509Z,37.02
2022-08-05T09:31:44.230Z,37.12
2022-08-05T09:34:01.447Z,37.29
2022-08-05T09:36:38.156Z,36.06
2022-08-05T09:39:18.070Z,36.92
2022-08-05T09:41:57.062Z,36.77
2022-08-05T09:44:35.679Z,37.46
2022-08-05T09:47:24.177Z,37.50
2022-08-05T09:49:57.075Z,37.58
2022-08-05T09:52:31.235Z,37.62
2022-08-05T09:55:00.133Z,37.60
2022-08-05T09:57:39.576Z,38.32
2022-08-05T10:00:11.499Z,39.08
2022-08-05T10:02:40.000Z,39.52
2022-08-05T10:05:13.828Z,39.80
2022-08-05T10:08:10.831Z,39.23
2022-08-05T10:10:45.113Z,37.95
2022-08-05T10:13:44.016Z,36.76
2022-08-05T10:16:28.509Z,36.50
2022-08-05T10:18:55.857Z,36.45
2022-08-05T10:21:24.197Z,35.73
2022-08-05T10:23:59.235Z,36.01
2022-08-05T10:26:32.261Z,36.39
2022-08-05T10:29:23.527Z,36.69
2022-08-05T10:32:51.959Z,36.61
2022-08-05T10:34:40.864Z,36.22
2022-08-05T10:37:08.477Z,36.19
2022-08-05T10:39:58.931Z,35.98
2022-08-05T10:42:34.106Z,36.35
2022-08-05T10:45:01.810Z,36.33
2022-08-05T10:47:33.262Z,36.45
2022-08-05T10:50:33.081Z,36.74
2022-08-05T10:53:01.071Z,36.56
2022-08-05T10:55:32.886Z,36.68
2022-08-05T10:58:23.281Z,36.62
2022-08-05T11:01:06.765Z,35.99
2022-08-05T11:03:36.013Z,36.25
2022-08-05T11:06:15.087Z,36.17
2022-08-05T11:09:02.409Z,36.05
2022-08-05T11:11:44.302Z,36.18
2022-08-05T11:14:37.287Z,36.16
2022-08-05T11:17:57.233Z,35.41
2022-08-05T11:20:51.356Z,35.70
2022-08-05T11:23:33.401Z,36.14
2022-08-05T11:26:05.416Z,35.57
2022-08-05T11:28:36.128Z,35.78
2022-08-05T11:31:06.227Z,36.06
2022-08-05T11:33:46.342Z,36.11
2022-08-05T11:36:34.532Z,36.21
2022-08-05T11:39:05.596Z,36.53
2022-08-05T11:41:56.430Z,36.57
2022-08-05T11:44:40.940Z,36.53
2022-08-05T11:47:14.021Z,36.47
2022-08-05T11:49:50.893Z,36.50
2022-08-05T11:52:29.734Z,36.42
2022-08-05T11:54:59.075Z,36.42
2022-08-05T11:58:08.625Z,36.41
2022-08-05T12:00:25.913Z,35.78
2022-08-05T12:02:56.583Z,35.60
2022-08-05T12:05:32.334Z,35.48
2022-08-05T12:08:10.109Z,35.94
2022-08-05T12:10:45.400Z,35.95
2022-08-05T12:13:27.746Z,36.17
2022-08-05T12:16:14.428Z,36.38
2022-08-05T12:18:49.086Z,36.45
2022-08-05T12:21:24.606Z,36.45
2022-08-05T12:24:00.024Z,36.45
2022-08-05T12:26:31.144Z,36.29
2022-08-05T12:28:59.321Z,36.31
2022-08-05T12:31:33.604Z,36.50
2022-08-05T12:34:14.575Z,36.59
2022-08-05T12:36:47.885Z,36.44
2022-08-05T12:39:15.502Z,36.36
2022-08-05T12:41:43.851Z,36.22
2022-08-05T12:44:14.532Z,36.02
2022-08-05T12:46:56.125Z,35.74
2022-08-05T12:49:25.491Z,36.04
2022-08-05T12:52:12.570Z,36.17
2022-08-05T12:54:49.781Z,36.09
2022-08-05T12:57:16.926Z,35.93
2022-08-05T13:01:58.499Z,36.16
2022-08-05T13:02:40.199Z,36.41
2022-08-05T13:05:08.465Z,36.46
2022-08-05T13:08:00.141Z,36.49
2022-08-05T13:10:28.769Z,36.65
2022-08-05T13:12:57.951Z,36.48
2022-08-05T13:15:41.310Z,36.40
2022-08-05T13:18:21.377Z,36.27
2022-08-05T13:20:51.157Z,36.20
2022-08-05T13:23:22.478Z,35.75
2022-08-05T13:25:59.454Z,35.92
2022-08-05T13:28:27.642Z,36.04
2022-08-05T13:30:54.716Z,36.08
2022-08-05T13:34:22.288Z,36.20
2022-08-05T13:36:09.647Z,36.14
2022-08-05T13:38:42.171Z,35.73
2022-08-05T13:41:11.264Z,35.76
2022-08-05T13:43:45.688Z,35.95
2022-08-05T13:47:02.011Z,36.03
2022-08-05T13:49:11.819Z,36.11
2022-08-05T13:51:41.023Z,36.20
2022-08-05T13:54:11.914Z,36.45
2022-08-05T13:56:51.022Z,36.48
2022-08-05T13:59:21.152Z,36.38
2022-08-05T14:01:56.579Z,36.30
2022-08-05T14:04:51.051Z,36.19
2022-08-05T14:07:25.425Z,36.29
2022-08-05T14:10:08.701Z,36.32
2022-08-05T14:12:36.319Z,36.21
2022-08-05T14:15:05.943Z,36.39
2022-08-05T14:17:51.511Z,36.54
2022-08-05T14:20:27.200Z,36.71
2022-08-05T14:22:55.128Z,36.72
2022-08-05T14:25:28.126Z,36.45
2022-08-05T14:27:55.956Z,36.43
2022-08-05T14:30:23.075Z,36.63
2022-08-05T14:32:53.597Z,36.77
2022-08-05T14:35:22.923Z,36.62
2022-08-05T14:37:53.635Z,36.62
2022-08-05T14:40:24.326Z,36.67
2022-08-05T14:42:52.058Z,36.35
2022-08-05T14:45:19.153Z,36.08
2022-08-05T14:48:03.103Z,36.13
2022-08-05T14:50:32.242Z,36.09
2022-08-05T14:53:00.239Z,36.00
2022-08-05T14:55:38.347Z,35.96
2022-08-05T14:58:11.429Z,36.14
2022-08-05T15:00:39.720Z,36.13
2022-08-05T15:03:33.978Z,36.14
2022-08-05T15:06:13.622Z,36.37
2022-08-05T15:09:01.244Z,36.38
2022-08-05T15:11:51.667Z,36.32
2022-08-05T15:14:34.210Z,36.27
2022-08-05T15:17:03.695Z,36.33
2022-08-05T15:19:31.763Z,36.38
2022-08-05T15:22:01.053Z,36.10
2022-08-05T15:24:28.644Z,36.19
2022-08-05T15:26:56.952Z,36.20
2022-08-05T15:29:30.146Z,36.23
2022-08-05T15:32:03.088Z,36.27
2022-08-05T15:34:33.127Z,36.08
2022-08-05T15:37:06.156Z,35.98
2022-08-05T15:41:02.881Z,35.37
2022-08-05T15:42:57.711Z,35.76
2022-08-05T15:45:15.791Z,35.96
2022-08-05T15:47:43.867Z,35.99
2022-08-05T15:50:15.184Z,35.90
2022-08-05T15:52:54.742Z,36.01
2022-08-05T15:55:24.923Z,36.03
2022-08-05T15:58:16.384Z,35.85
2022-08-05T16:00:50.638Z,35.79
2022-08-05T16:03:24.238Z,35.73
2022-08-05T16:05:52.842Z,35.84
2022-08-05T16:08:24.028Z,35.67
2022-08-05T16:10:58.147Z,35.73
2022-08-05T16:13:34.434Z,35.63
2022-08-05T16:16:03.292Z,35.63
2022-08-05T16:18:32.980Z,35.53
2022-08-05T16:21:04.579Z,35.83
2022-08-05T16:23:54.216Z,35.79
2022-08-05T16:26:26.193Z,35.83
2022-08-05T16:28:54.622Z,35.83
2022-08-05T16:31:21.884Z,35.87
2022-08-05T16:33:49.170Z,35.96
2022-08-05T16:36:20.555Z,36.02
2022-08-05T16:38:54.870Z,35.80
2022-08-05T16:42:13.787Z,35.79
2022-08-05T16:44:10.486Z,35.79
2022-08-05T16:46:41.104Z,35.76
2022-08-05T16:49:09.095Z,35.73
2022-08-05T16:51:42.853Z,35.65
2022-08-05T16:54:25.763Z,35.67
2022-08-05T16:56:54.506Z,35.60
2022-08-05T16:59:23.418Z,35.46
2022-08-05T17:01:54.329Z,35.41
2022-08-05T17:04:27.219Z,35.41
2022-08-05T17:06:55.890Z,35.37
2022-08-05T17:09:27.749Z,35.34
2022-08-05T17:11:59.885Z,35.27
2022-08-05T17:14:37.162Z,35.08
2022-08-05T17:17:05.898Z,35.13
2022-08-05T17:19:33.021Z,34.96
2022-08-05T17:22:01.267Z,34.89
2022-08-05T17:24:38.960Z,34.87
2022-08-05T17:27:10.682Z,34.87
2022-08-05T17:29:41.150Z,34.74
2022-08-05T17:32:11.331Z,34.62
2022-08-05T17:34:43.884Z,34.35
2022-08-05T17:37:27.213Z,34.27
2022-08-05T17:39:59.808Z,33.97
2022-08-05T17:42:31.892Z,33.67
2022-08-05T17:45:09.914Z,33.51
2022-08-05T17:47:52.968Z,33.32
2022-08-05T17:50:29.603Z,33.14
2022-08-05T17:52:58.962Z,32.91
2022-08-05T17:55:27.237Z,32.68
2022-08-05T17:57:54.731Z,32.46
2022-08-05T18:00:21.859Z,32.44
2022-08-05T18:02:57.105Z,32.31
2022-08-05T18:05:27.918Z,32.16
2022-08-05T18:07:56.903Z,31.97
2022-08-05T18:10:24.522Z,31.85
2022-08-05T18:12:52.815Z,31.60
2022-08-05T18:15:20.001Z,31.48
2022-08-05T18:18:01.459Z,31.38
2022-08-05T18:20:32.574Z,31.24
2022-08-05T18:23:11.522Z,31.17
2022-08-05T18:25:45.239Z,31.08
2022-08-05T18:28:16.668Z,31.07
2022-08-05T18:30:50.817Z,31.10
2022-08-05T18:33:22.697Z,31.04
2022-08-05T18:36:03.650Z,31.31
2022-08-05T18:38:36.253Z,31.16
2022-08-05T18:41:55.403Z,30.88
2022-08-05T18:43:51.335Z,30.66
2022-08-05T18:46:20.008Z,30.52
2022-08-05T18:48:48.375Z,30.28
2022-08-05T18:52:03.341Z,30.08
2022-08-05T18:54:26.480Z,29.96
2022-08-05T18:56:57.128Z,29.94
2022-08-05T18:59:44.082Z,29.80
2022-08-05T19:02:27.017Z,29.79
2022-08-05T19:05:02.137Z,29.78
2022-08-05T19:07:45.916Z,29.65
2022-08-05T19:10:14.351Z,29.52
2022-08-05T19:12:41.736Z,29.44
2022-08-05T19:15:56.825Z,29.50
2022-08-05T19:18:10.219Z,29.36
2022-08-05T19:20:46.512Z,29.23
2022-08-05T19:23:22.514Z,29.07
2022-08-05T19:26:02.997Z,28.94
2022-08-05T19:28:34.707Z,28.86
2022-08-05T19:31:05.986Z,28.84
2022-08-05T19:33:36.817Z,28.70
2022-08-05T19:36:06.390Z,28.65
2022-08-05T19:38:36.804Z,28.60
2022-08-05T19:41:07.116Z,28.58
2022-08-05T19:44:06.491Z,28.54
2022-08-05T19:46:30.221Z,28.31
2022-08-05T19:49:03.632Z,28.32
2022-08-05T19:52:05.948Z,28.25
2022-08-05T19:54:25.640Z,28.21
2022-08-05T19:56:58.786Z,28.23
2022-08-05T20:00:01.367Z,28.14
2022-08-05T20:02:14.673Z,28.07
2022-08-05T20:04:42.795Z,28.02
2022-08-05T20:07:13.455Z,27.91
2022-08-05T20:09:54.102Z,27.90
2022-08-05T20:12:23.515Z,27.89
2022-08-05T20:14:52.216Z,27.85
2022-08-05T20:17:23.641Z,27.60
2022-08-05T20:19:56.559Z,27.59
2022-08-05T20:22:25.017Z,27.51
2022-08-05T20:24:54.902Z,27.45
2022-08-05T20:27:26.701Z,27.38
2022-08-05T20:29:57.592Z,27.31
2022-08-05T20:32:26.358Z,27.41
2022-08-05T20:34:53.793Z,27.44
2022-08-05T20:38:06.506Z,27.40
2022-08-05T20:40:09.382Z,27.35
2022-08-05T20:42:36.858Z,27.48
2022-08-05T20:45:04.605Z,27.23
2022-08-05T20:47:33.357Z,26.93
2022-08-05T20:50:02.061Z,26.94
2022-08-05T20:52:29.780Z,27.16
2022-08-05T20:55:55.551Z,27.17
2022-08-05T20:57:45.107Z,27.03
2022-08-05T21:00:40.459Z,26.91
2022-08-05T21:03:06.992Z,26.83
2022-08-05T21:05:47.727Z,26.73
2022-08-05T21:08:31.715Z,26.62
2022-08-05T21:11:09.951Z,26.57
2022-08-05T21:13:47.526Z,26.52
2022-08-05T21:16:29.407Z,26.41
2022-08-05T21:18:59.945Z,26.34
2022-08-05T21:21:39.131Z,26.32
2022-08-05T21:24:12.980Z,26.31
2022-08-05T21:26:41.423Z,26.23
2022-08-05T21:29:12.651Z,26.21
2022-08-05T21:31:44.229Z,26.17
2022-08-05T21:34:11.504Z,26.10
2022-08-05T21:36:38.990Z,26.03
2022-08-05T21:39:10.118Z,26.04
2022-08-05T21:41:41.750Z,25.97
2022-08-05T21:44:27.237Z,25.91
2022-08-05T21:46:57.947Z,25.86
2022-08-05T21:49:58.813Z,25.86
2022-08-05T21:52:16.309Z,25.83
2022-08-05T21:54:51.940Z,25.82
2022-08-05T21:57:31.312Z,25.76
2022-08-05T22:00:06.454Z,25.72
2022-08-05T22:02:39.535Z,25.77
2022-08-05T22:05:09.695Z,25.68
2022-08-05T22:07:40.248Z,25.64
2022-08-05T22:10:26.635Z,25.60
2022-08-05T22:12:58.863Z,25.58
2022-08-05T22:16:01.991Z,25.56
2022-08-05T22:18:25.635Z,25.57
2022-08-05T22:20:56.815Z,25.54
2022-08-05T22:24:00.810Z,25.49
2022-08-05T22:26:49.713Z,25.47
2022-08-05T22:29:18.728Z,25.35
2022-08-05T22:31:55.215Z,25.41
2022-08-05T22:34:28.703Z,25.43
2022-08-05T22:36:58.444Z,25.35
2022-08-05T22:39:30.992Z,25.13
2022-08-05T22:42:09.564Z,25.16
2022-08-05T22:44:38.981Z,25.08
2022-08-05T22:47:06.573Z,25.02
2022-08-05T22:50:18.062Z,24.81
2022-08-05T22:52:30.465Z,24.71
2022-08-05T22:54:59.835Z,24.58
2022-08-05T22:57:27.434Z,24.33
2022-08-05T23:00:05.051Z,24.19
2022-08-05T23:02:35.965Z,24.10
2022-08-05T23:05:14.076Z,24.05
2022-08-05T23:07:45.101Z,23.90
2022-08-05T23:10:16.248Z,24.10
2022-08-05T23:12:51.563Z,24.13
2022-08-05T23:15:26.819Z,24.21
2022-08-05T23:18:00.466Z,24.19
2022-08-05T23:20:30.278Z,24.16
2022-08-05T23:22:58.685Z,24.13
2022-08-05T23:25:51.328Z,24.07
2022-08-05T23:28:15.973Z,23.97
2022-08-05T23:30:53.125Z,23.99
2022-08-05T23:34:03.110Z,23.95
2022-08-05T23:36:13.749Z,23.94
2022-08-05T23:38:41.781Z,23.94
2022-08-05T23:41:10.427Z,23.88
2022-08-05T23:44:04.532Z,23.85
2022-08-05T23:46:25.238Z,23.91
2022-08-05T23:49:00.213Z,23.95
2022-08-05T23:51:54.272Z,23.89
2022-08-05T23:54:36.407Z,23.78
2022-08-05T23:57:04.760Z,23.75
